createdAt,value
2017-03-10T00:00:32.908Z,0
2017-03-10T00:01:32.489Z,0
2017-03-10T00:02:34.275Z,0
2017-03-10T00:03:32.856Z,0
2017-03-10T00:04:32.838Z,0
2017-03-10T00:05:34.376Z,0
2017-03-10T00:06:32.853Z,0
2017-03-10T00:07:32.413Z,0
2017-03-10T00:08:33.115Z,0
2017-03-10T00:09:32.387Z,0
2017-03-10T00:10:32.764Z,0
2017-03-10T00:11:33.319Z,0
2017-03-10T00:12:32.736Z,0
2017-03-10T00:13:32.713Z,0
2017-03-10T00:14:33.730Z,0
2017-03-10T00:15:32.272Z,0
2017-03-10T00:16:31.887Z,0
2017-03-10T00:17:33.301Z,0
2017-03-10T00:18:32.658Z,0
2017-03-10T00:19:32.609Z,0
2017-03-10T00:20:32.971Z,0
2017-03-10T00:21:32.604Z,0
2017-03-10T00:22:32.176Z,0
2017-03-10T00:23:33.007Z,0
2017-03-10T00:24:32.564Z,0
2017-03-10T00:25:32.537Z,0
2017-03-10T00:26:32.937Z,0
2017-03-10T00:27:32.507Z,0
2017-03-10T00:28:32.492Z,0
2017-03-10T00:29:32.472Z,0
2017-03-10T00:30:32.886Z,0
2017-03-10T00:31:32.478Z,0
2017-03-10T00:32:31.631Z,0
2017-03-10T00:33:33.614Z,0
2017-03-10T00:34:32.426Z,0
2017-03-10T00:35:32.419Z,0
2017-03-10T00:36:32.373Z,0
2017-03-10T00:37:31.972Z,0
2017-03-10T00:38:32.347Z,0
2017-03-10T00:39:32.316Z,0
2017-03-10T00:40:32.315Z,0
2017-03-10T00:41:32.308Z,0
2017-03-10T00:42:32.282Z,0
2017-03-10T00:43:32.286Z,0
2017-03-10T00:44:32.293Z,0
2017-03-10T00:45:31.443Z,0
2017-03-10T00:46:31.459Z,0
2017-03-10T00:47:32.245Z,0
2017-03-10T00:48:31.800Z,0
2017-03-10T00:49:32.197Z,0
2017-03-10T00:50:32.190Z,0
2017-03-10T00:51:32.168Z,0
2017-03-10T00:52:31.776Z,0
2017-03-10T00:53:32.139Z,0
2017-03-10T00:54:32.125Z,0
2017-03-10T00:55:31.332Z,0
2017-03-10T00:56:32.087Z,0
2017-03-10T00:57:31.685Z,0
2017-03-10T00:58:32.074Z,0
2017-03-10T00:59:31.672Z,0
2017-03-10T01:00:31.652Z,0
2017-03-10T01:01:32.021Z,0
2017-03-10T01:02:32.028Z,0
2017-03-10T01:03:31.593Z,0
2017-03-10T01:04:31.985Z,0
2017-03-10T01:05:31.963Z,0
2017-03-10T01:06:31.578Z,0
2017-03-10T01:07:31.938Z,0
2017-03-10T01:08:31.913Z,0
2017-03-10T01:09:30.701Z,0
2017-03-10T01:10:31.502Z,0
2017-03-10T01:11:31.885Z,0
2017-03-10T01:12:32.314Z,0
2017-03-10T01:13:31.448Z,0
2017-03-10T01:14:31.430Z,0
2017-03-10T01:15:31.827Z,0
2017-03-10T01:16:31.807Z,0
2017-03-10T01:17:31.832Z,0
2017-03-10T01:18:31.405Z,0
2017-03-10T01:19:31.786Z,0
2017-03-10T01:20:31.747Z,0
2017-03-10T01:21:31.745Z,0
2017-03-10T01:22:31.762Z,0
2017-03-10T01:23:31.711Z,0
2017-03-10T01:24:31.682Z,0
2017-03-10T01:25:31.692Z,0
2017-03-10T01:26:31.271Z,0
2017-03-10T01:27:31.667Z,0
2017-03-10T01:28:31.245Z,0
2017-03-10T01:29:31.639Z,0
2017-03-10T01:30:31.615Z,0
2017-03-10T01:31:31.204Z,0
2017-03-10T01:32:31.585Z,0
2017-03-10T01:33:30.808Z,0
2017-03-10T01:34:31.558Z,0
2017-03-10T01:35:31.145Z,0
2017-03-10T01:36:30.726Z,0
2017-03-10T01:37:31.128Z,0
2017-03-10T01:38:31.493Z,0
2017-03-10T01:39:31.489Z,0
2017-03-10T01:40:31.473Z,0
2017-03-10T01:41:31.474Z,0
2017-03-10T01:42:31.455Z,0
2017-03-10T01:43:31.421Z,0
2017-03-10T01:44:31.013Z,0
2017-03-10T01:45:30.630Z,0
2017-03-10T01:46:30.969Z,0
2017-03-10T01:47:30.960Z,0
2017-03-10T01:48:30.566Z,0
2017-03-10T01:49:30.957Z,0
2017-03-10T01:50:31.325Z,0
2017-03-10T01:51:30.920Z,0
2017-03-10T01:52:31.300Z,0
2017-03-10T01:53:31.289Z,0
2017-03-10T01:54:31.287Z,0
2017-03-10T01:55:30.845Z,0
2017-03-10T01:56:31.235Z,0
2017-03-10T01:57:30.822Z,0
2017-03-10T01:58:30.415Z,0
2017-03-10T01:59:30.788Z,0
2017-03-10T02:00:30.765Z,0
2017-03-10T02:01:30.773Z,0
2017-03-10T02:02:30.764Z,0
2017-03-10T02:03:31.141Z,0
2017-03-10T02:04:31.133Z,0
2017-03-10T02:05:31.130Z,0
2017-03-10T02:06:31.096Z,0
2017-03-10T02:07:31.064Z,0
2017-03-10T02:08:31.051Z,0
2017-03-10T02:09:30.633Z,0
2017-03-10T02:10:31.022Z,0
2017-03-10T02:11:31.031Z,0
2017-03-10T02:12:30.991Z,0
2017-03-10T02:13:30.574Z,0
2017-03-10T02:14:30.972Z,0
2017-03-10T02:15:30.954Z,0
2017-03-10T02:16:30.534Z,0
2017-03-10T02:17:30.924Z,0
2017-03-10T02:18:30.910Z,0
2017-03-10T02:19:30.497Z,0
2017-03-10T02:20:30.484Z,0
2017-03-10T02:21:30.862Z,0
2017-03-10T02:22:30.064Z,0
2017-03-10T02:23:30.840Z,0
2017-03-10T02:24:30.807Z,0
2017-03-10T02:25:30.796Z,0
2017-03-10T02:26:30.819Z,0
2017-03-10T02:27:30.778Z,0
2017-03-10T02:28:30.381Z,0
2017-03-10T02:29:30.730Z,0
2017-03-10T02:30:30.330Z,0
2017-03-10T02:31:31.691Z,0
2017-03-10T02:32:30.309Z,0
2017-03-10T02:33:30.679Z,0
2017-03-10T02:34:30.676Z,0
2017-03-10T02:35:30.655Z,0
2017-03-10T02:36:30.624Z,0
2017-03-10T02:37:30.609Z,0
2017-03-10T02:38:30.605Z,0
2017-03-10T02:39:30.577Z,0
2017-03-10T02:40:30.613Z,0
2017-03-10T02:41:30.563Z,0
2017-03-10T02:42:30.543Z,0
2017-03-10T02:43:30.530Z,0
2017-03-10T02:44:30.526Z,0
2017-03-10T02:45:30.513Z,0
2017-03-10T02:46:30.480Z,0
2017-03-10T02:47:30.484Z,0
2017-03-10T02:48:30.456Z,0
2017-03-10T02:49:30.465Z,0
2017-03-10T02:50:30.082Z,0
2017-03-10T02:51:30.418Z,0
2017-03-10T02:52:29.990Z,0
2017-03-10T02:53:30.407Z,0
2017-03-10T02:54:30.366Z,0
2017-03-10T02:55:30.347Z,0
2017-03-10T02:56:30.323Z,0
2017-03-10T02:57:30.316Z,0
2017-03-10T02:58:30.333Z,0
2017-03-10T02:59:29.902Z,0
2017-03-10T03:00:30.280Z,0
2017-03-10T03:01:30.260Z,0
2017-03-10T03:02:30.239Z,0
2017-03-10T03:03:30.293Z,0
2017-03-10T03:04:30.212Z,0
2017-03-10T03:05:29.409Z,0
2017-03-10T03:06:30.199Z,0
2017-03-10T03:07:30.198Z,0
2017-03-10T03:08:30.143Z,0
2017-03-10T03:09:30.155Z,0
2017-03-10T03:10:29.733Z,0
2017-03-10T03:11:30.121Z,0
2017-03-10T03:12:30.097Z,0
2017-03-10T03:13:29.682Z,0
2017-03-10T03:14:30.055Z,0
2017-03-10T03:15:30.038Z,0
2017-03-10T03:16:30.027Z,0
2017-03-10T03:17:29.646Z,0
2017-03-10T03:18:30.017Z,0
2017-03-10T03:19:29.987Z,0
2017-03-10T03:20:29.976Z,0
2017-03-10T03:21:29.940Z,0
2017-03-10T03:22:29.940Z,0
2017-03-10T03:23:29.928Z,0
2017-03-10T03:24:29.920Z,0
2017-03-10T03:25:29.928Z,0
2017-03-10T03:26:29.889Z,0
2017-03-10T03:27:29.859Z,0
2017-03-10T03:28:29.842Z,0
2017-03-10T03:29:29.834Z,0
2017-03-10T03:30:29.425Z,0
2017-03-10T03:31:29.795Z,0
2017-03-10T03:32:29.809Z,0
2017-03-10T03:33:28.991Z,0
2017-03-10T03:34:29.745Z,0
2017-03-10T03:35:29.745Z,0
2017-03-10T03:36:29.725Z,0
2017-03-10T03:37:29.712Z,0
2017-03-10T03:38:29.704Z,0
2017-03-10T03:39:29.682Z,0
2017-03-10T03:40:29.670Z,0
2017-03-10T03:41:29.660Z,0
2017-03-10T03:42:29.645Z,0
2017-03-10T03:43:29.620Z,0
2017-03-10T03:44:29.211Z,0
2017-03-10T03:45:29.595Z,0
2017-03-10T03:46:29.170Z,0
2017-03-10T03:47:29.147Z,0
2017-03-10T03:48:29.550Z,0
2017-03-10T03:49:29.533Z,0
2017-03-10T03:50:29.519Z,0
2017-03-10T03:51:29.092Z,0
2017-03-10T03:52:29.080Z,0
2017-03-10T03:53:29.484Z,0
2017-03-10T03:54:29.476Z,0
2017-03-10T03:55:29.433Z,0
2017-03-10T03:56:29.430Z,0
2017-03-10T03:57:29.397Z,0
2017-03-10T03:58:29.398Z,0
2017-03-10T03:59:28.973Z,0
2017-03-10T04:00:28.968Z,0
2017-03-10T04:01:29.343Z,0
2017-03-10T04:02:28.926Z,0
2017-03-10T04:03:29.319Z,0
2017-03-10T04:04:29.298Z,0
2017-03-10T04:05:29.297Z,0
2017-03-10T04:06:29.272Z,0
2017-03-10T04:07:29.260Z,0
2017-03-10T04:08:28.838Z,0
2017-03-10T04:09:29.210Z,0
2017-03-10T04:10:29.220Z,0
2017-03-10T04:11:29.192Z,0
2017-03-10T04:12:29.190Z,0
2017-03-10T04:13:29.157Z,0
2017-03-10T04:14:29.161Z,0
2017-03-10T04:15:29.131Z,0
2017-03-10T04:16:29.104Z,0
2017-03-10T04:17:29.120Z,0
2017-03-10T04:18:29.098Z,0
2017-03-10T04:19:29.067Z,0
2017-03-10T04:20:29.053Z,0
2017-03-10T04:21:29.039Z,0
2017-03-10T04:22:29.022Z,0
2017-03-10T04:23:29.028Z,0
2017-03-10T04:24:28.990Z,0
2017-03-10T04:25:28.969Z,0
2017-03-10T04:26:28.969Z,0
2017-03-10T04:27:28.945Z,0
2017-03-10T04:28:28.915Z,0
2017-03-10T04:29:28.915Z,0
2017-03-10T04:30:28.505Z,0
2017-03-10T04:31:28.879Z,0
2017-03-10T04:32:28.869Z,0
2017-03-10T04:33:28.887Z,0
2017-03-10T04:34:28.837Z,0
2017-03-10T04:35:28.810Z,0
2017-03-10T04:36:28.797Z,0
2017-03-10T04:37:28.378Z,0
2017-03-10T04:38:28.396Z,0
2017-03-10T04:39:28.367Z,0
2017-03-10T04:40:28.336Z,0
2017-03-10T04:41:28.719Z,0
2017-03-10T04:42:28.312Z,0
2017-03-10T04:43:28.291Z,0
2017-03-10T04:44:28.677Z,0
2017-03-10T04:45:28.249Z,0
2017-03-10T04:46:28.651Z,0
2017-03-10T04:47:28.238Z,0
2017-03-10T04:48:28.634Z,0
2017-03-10T04:49:28.613Z,0
2017-03-10T04:50:28.591Z,0
2017-03-10T04:51:28.575Z,0
2017-03-10T04:52:28.560Z,0
2017-03-10T04:53:28.530Z,0
2017-03-10T04:54:28.512Z,0
2017-03-10T04:55:28.505Z,0
2017-03-10T04:56:28.503Z,0
2017-03-10T04:57:28.487Z,0
2017-03-10T04:58:28.066Z,0
2017-03-10T04:59:28.031Z,0
2017-03-10T05:00:28.452Z,0
2017-03-10T05:01:28.425Z,0
2017-03-10T05:02:28.409Z,0
2017-03-10T05:03:27.972Z,0
2017-03-10T05:04:28.362Z,0
2017-03-10T05:05:28.359Z,0
2017-03-10T05:06:28.325Z,0
2017-03-10T05:07:28.319Z,0
2017-03-10T05:08:28.299Z,0
2017-03-10T05:09:27.479Z,0
2017-03-10T05:10:28.284Z,0
2017-03-10T05:11:28.262Z,0
2017-03-10T05:12:27.447Z,0
2017-03-10T05:13:28.264Z,0
2017-03-10T05:14:28.207Z,0
2017-03-10T05:15:28.184Z,0
2017-03-10T05:16:28.163Z,0
2017-03-10T05:17:28.161Z,0
2017-03-10T05:18:28.151Z,0
2017-03-10T05:19:27.729Z,0
2017-03-10T05:20:27.755Z,0
2017-03-10T05:21:28.108Z,0
2017-03-10T05:22:28.071Z,0
2017-03-10T05:23:27.691Z,0
2017-03-10T05:24:27.660Z,0
2017-03-10T05:25:28.039Z,0
2017-03-10T05:26:28.014Z,0
2017-03-10T05:27:27.999Z,0
2017-03-10T05:28:27.988Z,0
2017-03-10T05:29:27.585Z,0
2017-03-10T05:30:27.963Z,0
2017-03-10T05:31:27.545Z,0
2017-03-10T05:32:27.940Z,0
2017-03-10T05:33:27.917Z,0
2017-03-10T05:34:27.487Z,0
2017-03-10T05:35:27.883Z,0
2017-03-10T05:36:27.885Z,0
2017-03-10T05:37:27.845Z,0
2017-03-10T05:38:27.854Z,0
2017-03-10T05:39:27.815Z,0
2017-03-10T05:40:27.815Z,0
2017-03-10T05:41:27.809Z,0
2017-03-10T05:42:27.768Z,0
2017-03-10T05:43:27.756Z,0
2017-03-10T05:44:27.370Z,0
2017-03-10T05:45:27.743Z,0
2017-03-10T05:46:27.696Z,0
2017-03-10T05:47:27.694Z,0
2017-03-10T05:48:27.288Z,0
2017-03-10T05:49:27.645Z,0
2017-03-10T05:50:27.654Z,0
2017-03-10T05:51:27.644Z,0
2017-03-10T05:52:27.624Z,0
2017-03-10T05:53:27.598Z,0
2017-03-10T05:54:27.579Z,0
2017-03-10T05:55:27.566Z,0
2017-03-10T05:56:27.560Z,0
2017-03-10T05:57:27.552Z,5
2017-03-10T05:58:27.519Z,5
2017-03-10T05:59:27.506Z,5
2017-03-10T06:00:27.476Z,5
2017-03-10T06:01:27.476Z,5
2017-03-10T06:02:27.457Z,5
2017-03-10T06:03:27.436Z,5
2017-03-10T06:04:27.427Z,5
2017-03-10T06:05:27.403Z,5
2017-03-10T06:06:27.427Z,5
2017-03-10T06:07:27.378Z,5
2017-03-10T06:08:27.352Z,5
2017-03-10T06:09:27.343Z,5
2017-03-10T06:10:27.340Z,5
2017-03-10T06:11:26.913Z,5
2017-03-10T06:12:27.312Z,5
2017-03-10T06:13:27.270Z,5
2017-03-10T06:14:27.269Z,5
2017-03-10T06:15:27.260Z,10
2017-03-10T06:16:26.847Z,10
2017-03-10T06:17:26.831Z,10
2017-03-10T06:18:27.196Z,10
2017-03-10T06:19:27.176Z,10
2017-03-10T06:20:27.166Z,10
2017-03-10T06:21:27.163Z,10
2017-03-10T06:22:27.137Z,10
2017-03-10T06:23:27.114Z,10
2017-03-10T06:24:27.116Z,15
2017-03-10T06:25:27.092Z,15
2017-03-10T06:26:27.076Z,15
2017-03-10T06:27:27.075Z,15
2017-03-10T06:28:27.037Z,15
2017-03-10T06:29:27.044Z,15
2017-03-10T06:30:27.012Z,15
2017-03-10T06:31:27.000Z,10
2017-03-10T06:32:26.986Z,15
2017-03-10T06:33:26.964Z,15
2017-03-10T06:34:26.953Z,15
2017-03-10T06:35:26.553Z,15
2017-03-10T06:36:26.920Z,15
2017-03-10T06:37:26.513Z,15
2017-03-10T06:38:26.894Z,10
2017-03-10T06:39:26.889Z,10
2017-03-10T06:40:26.879Z,10
2017-03-10T06:41:26.847Z,10
2017-03-10T06:42:26.847Z,10
2017-03-10T06:43:26.825Z,10
2017-03-10T06:44:26.800Z,15
2017-03-10T06:45:26.765Z,15
2017-03-10T06:46:26.750Z,15
2017-03-10T06:47:26.742Z,15
2017-03-10T06:48:26.732Z,15
2017-03-10T06:49:26.740Z,20
2017-03-10T06:50:26.710Z,20
2017-03-10T06:51:26.689Z,20
2017-03-10T06:52:26.672Z,20
2017-03-10T06:53:26.662Z,20
2017-03-10T06:54:26.628Z,20
2017-03-10T06:55:26.623Z,20
2017-03-10T06:56:26.632Z,20
2017-03-10T06:57:26.617Z,20
2017-03-10T06:58:26.570Z,25
2017-03-10T06:59:26.163Z,25
2017-03-10T07:00:26.147Z,25
2017-03-10T07:01:26.542Z,25
2017-03-10T07:02:25.735Z,25
2017-03-10T07:03:26.113Z,25
2017-03-10T07:04:26.503Z,20
2017-03-10T07:05:26.465Z,25
2017-03-10T07:06:26.448Z,35
2017-03-10T07:07:26.427Z,40
2017-03-10T07:08:26.032Z,50
2017-03-10T07:09:26.421Z,65
2017-03-10T07:10:26.007Z,65
2017-03-10T07:11:26.374Z,85
2017-03-10T07:12:26.371Z,75
2017-03-10T07:13:25.979Z,85
2017-03-10T07:14:25.560Z,85
2017-03-10T07:15:25.912Z,75
2017-03-10T07:16:26.318Z,90
2017-03-10T07:17:25.926Z,95
2017-03-10T07:18:26.267Z,80
2017-03-10T07:19:25.860Z,80
2017-03-10T07:20:26.242Z,85
2017-03-10T07:21:26.230Z,105
2017-03-10T07:22:25.818Z,95
2017-03-10T07:23:25.810Z,80
2017-03-10T07:24:25.795Z,70
2017-03-10T07:25:25.776Z,70
2017-03-10T07:26:25.789Z,85
2017-03-10T07:27:26.127Z,80
2017-03-10T07:28:25.731Z,80
2017-03-10T07:29:25.737Z,105
2017-03-10T07:30:26.091Z,140
2017-03-10T07:31:25.663Z,100
2017-03-10T07:32:26.063Z,80
2017-03-10T07:33:26.064Z,85
2017-03-10T07:34:26.021Z,80
2017-03-10T07:35:26.017Z,80
2017-03-10T07:36:26.000Z,80
2017-03-10T07:37:25.979Z,80
2017-03-10T07:38:25.949Z,70
2017-03-10T07:39:25.956Z,65
2017-03-10T07:40:25.547Z,70
2017-03-10T07:41:25.922Z,75
2017-03-10T07:42:25.903Z,90
2017-03-10T07:43:25.885Z,95
2017-03-10T07:44:25.872Z,95
2017-03-10T07:45:25.870Z,90
2017-03-10T07:46:25.438Z,75
2017-03-10T07:47:25.864Z,85
2017-03-10T07:48:25.818Z,100
2017-03-10T07:49:25.410Z,90
2017-03-10T07:50:25.787Z,90
2017-03-10T07:51:25.777Z,80
2017-03-10T07:52:25.768Z,80
2017-03-10T07:53:25.340Z,80
2017-03-10T07:54:25.736Z,70
2017-03-10T07:55:25.720Z,75
2017-03-10T07:56:25.689Z,85
2017-03-10T07:57:25.683Z,85
2017-03-10T07:58:25.272Z,80
2017-03-10T07:59:25.251Z,75
2017-03-10T08:00:25.635Z,75
2017-03-10T08:01:25.612Z,100
2017-03-10T08:02:25.195Z,105
2017-03-10T08:03:25.596Z,125
2017-03-10T08:04:25.173Z,140
2017-03-10T08:05:25.558Z,110
2017-03-10T08:06:25.558Z,135
2017-03-10T08:07:24.326Z,130
2017-03-10T08:08:25.519Z,155
2017-03-10T08:09:25.106Z,155
2017-03-10T08:10:25.483Z,125
2017-03-10T08:11:25.071Z,125
2017-03-10T08:12:25.070Z,110
2017-03-10T08:13:25.433Z,120
2017-03-10T08:14:25.428Z,80
2017-03-10T08:15:25.438Z,70
2017-03-10T08:16:24.999Z,100
2017-03-10T08:17:25.373Z,140
2017-03-10T08:18:25.003Z,155
2017-03-10T08:19:25.362Z,145
2017-03-10T08:20:25.329Z,145
2017-03-10T08:21:25.342Z,145
2017-03-10T08:22:25.312Z,175
2017-03-10T08:23:25.280Z,200
2017-03-10T08:24:25.276Z,205
2017-03-10T08:25:25.268Z,175
2017-03-10T08:26:25.252Z,160
2017-03-10T08:27:25.238Z,145
2017-03-10T08:28:25.243Z,135
2017-03-10T08:29:24.826Z,125
2017-03-10T08:30:24.788Z,125
2017-03-10T08:31:24.779Z,125
2017-03-10T08:32:25.175Z,120
2017-03-10T08:33:25.156Z,135
2017-03-10T08:34:24.744Z,145
2017-03-10T08:35:25.118Z,150
2017-03-10T08:36:25.129Z,150
2017-03-10T08:37:25.097Z,155
2017-03-10T08:38:25.085Z,180
2017-03-10T08:39:25.076Z,150
2017-03-10T08:40:25.052Z,130
2017-03-10T08:41:25.032Z,125
2017-03-10T08:42:25.025Z,120
2017-03-10T08:43:25.723Z,140
2017-03-10T08:44:24.610Z,155
2017-03-10T08:45:24.587Z,170
2017-03-10T08:46:24.968Z,180
2017-03-10T08:47:24.530Z,175
2017-03-10T08:48:24.925Z,190
2017-03-10T08:49:24.922Z,195
2017-03-10T08:50:24.904Z,190
2017-03-10T08:51:24.891Z,180
2017-03-10T08:52:24.874Z,180
2017-03-10T08:53:24.849Z,190
2017-03-10T08:54:24.833Z,200
2017-03-10T08:55:24.828Z,205
2017-03-10T08:56:24.805Z,205
2017-03-10T08:57:24.389Z,195
2017-03-10T08:58:24.790Z,195
2017-03-10T08:59:24.777Z,185
2017-03-10T09:00:24.346Z,190
2017-03-10T09:01:24.743Z,185
2017-03-10T09:02:24.730Z,170
2017-03-10T09:03:24.315Z,145
2017-03-10T09:04:24.688Z,130
2017-03-10T09:05:26.067Z,115
2017-03-10T09:06:25.585Z,105
2017-03-10T09:07:25.820Z,100
2017-03-10T09:08:24.624Z,100
2017-03-10T09:09:24.619Z,100
2017-03-10T09:10:24.599Z,90
2017-03-10T09:11:24.606Z,95
2017-03-10T09:12:24.599Z,100
2017-03-10T09:13:24.179Z,110
2017-03-10T09:14:24.152Z,125
2017-03-10T09:15:24.542Z,145
2017-03-10T09:16:24.534Z,145
2017-03-10T09:17:24.112Z,120
2017-03-10T09:18:24.497Z,105
2017-03-10T09:19:24.470Z,105
2017-03-10T09:20:24.066Z,120
2017-03-10T09:21:24.458Z,140
2017-03-10T09:22:24.432Z,130
2017-03-10T09:23:24.436Z,125
2017-03-10T09:24:24.425Z,125
2017-03-10T09:25:24.408Z,125
2017-03-10T09:26:24.373Z,135
2017-03-10T09:27:24.363Z,140
2017-03-10T09:28:23.948Z,130
2017-03-10T09:29:24.351Z,135
2017-03-10T09:30:24.339Z,155
2017-03-10T09:31:24.618Z,180
2017-03-10T09:32:25.702Z,180
2017-03-10T09:33:25.503Z,165
2017-03-10T09:34:25.070Z,150
2017-03-10T09:35:25.395Z,160
2017-03-10T09:36:24.938Z,175
2017-03-10T09:37:24.216Z,215
2017-03-10T09:38:23.812Z,245
2017-03-10T09:39:23.797Z,290
2017-03-10T09:40:23.776Z,295
2017-03-10T09:41:24.171Z,305
2017-03-10T09:42:24.152Z,335
2017-03-10T09:43:24.132Z,305
2017-03-10T09:44:24.122Z,290
2017-03-10T09:45:24.097Z,275
2017-03-10T09:46:23.705Z,270
2017-03-10T09:47:24.080Z,280
2017-03-10T09:48:23.261Z,290
2017-03-10T09:49:24.066Z,285
2017-03-10T09:50:24.028Z,235
2017-03-10T09:51:24.034Z,185
2017-03-10T09:52:24.032Z,160
2017-03-10T09:53:23.988Z,155
2017-03-10T09:54:23.987Z,150
2017-03-10T09:55:23.984Z,145
2017-03-10T09:56:23.968Z,145
2017-03-10T09:57:23.959Z,145
2017-03-10T09:58:23.930Z,150
2017-03-10T09:59:23.919Z,150
2017-03-10T10:00:23.907Z,165
2017-03-10T10:01:23.883Z,215
2017-03-10T10:02:23.881Z,275
2017-03-10T10:03:23.864Z,255
2017-03-10T10:04:23.889Z,250
2017-03-10T10:05:23.635Z,215
2017-03-10T10:06:23.411Z,160
2017-03-10T10:07:23.900Z,135
2017-03-10T10:08:23.788Z,130
2017-03-10T10:09:24.239Z,135
2017-03-10T10:10:23.781Z,190
2017-03-10T10:11:23.757Z,220
2017-03-10T10:12:23.340Z,225
2017-03-10T10:13:23.741Z,220
2017-03-10T10:14:23.342Z,230
2017-03-10T10:15:23.308Z,195
2017-03-10T10:16:23.692Z,135
2017-03-10T10:17:23.670Z,135
2017-03-10T10:18:23.784Z,145
2017-03-10T10:19:23.649Z,155
2017-03-10T10:20:23.628Z,165
2017-03-10T10:21:23.613Z,145
2017-03-10T10:22:23.621Z,120
2017-03-10T10:23:23.593Z,125
2017-03-10T10:24:23.583Z,155
2017-03-10T10:25:23.171Z,210
2017-03-10T10:26:23.577Z,290
2017-03-10T10:27:23.533Z,310
2017-03-10T10:28:23.522Z,320
2017-03-10T10:29:23.507Z,295
2017-03-10T10:30:23.092Z,260
2017-03-10T10:31:23.479Z,235
2017-03-10T10:32:23.486Z,235
2017-03-10T10:33:23.458Z,250
2017-03-10T10:34:23.422Z,285
2017-03-10T10:35:23.422Z,325
2017-03-10T10:36:23.423Z,365
2017-03-10T10:37:23.416Z,340
2017-03-10T10:38:23.067Z,305
2017-03-10T10:39:23.373Z,330
2017-03-10T10:40:23.357Z,375
2017-03-10T10:41:23.355Z,390
2017-03-10T10:42:23.335Z,355
2017-03-10T10:43:23.326Z,330
2017-03-10T10:44:23.318Z,325
2017-03-10T10:45:23.290Z,335
2017-03-10T10:46:22.903Z,340
2017-03-10T10:47:23.261Z,380
2017-03-10T10:48:23.243Z,400
2017-03-10T10:49:23.261Z,380
2017-03-10T10:50:23.220Z,350
2017-03-10T10:51:23.265Z,335
2017-03-10T10:52:23.207Z,345
2017-03-10T10:53:23.177Z,335
2017-03-10T10:54:22.790Z,340
2017-03-10T10:55:23.155Z,370
2017-03-10T10:56:23.166Z,350
2017-03-10T10:57:23.137Z,305
2017-03-10T10:58:23.129Z,290
2017-03-10T10:59:23.145Z,295
2017-03-10T11:00:22.701Z,265
2017-03-10T11:01:23.094Z,250
2017-03-10T11:02:22.695Z,255
2017-03-10T11:03:22.274Z,215
2017-03-10T11:04:23.061Z,170
2017-03-10T11:05:23.048Z,135
2017-03-10T11:06:23.017Z,140
2017-03-10T11:07:23.019Z,160
2017-03-10T11:08:23.008Z,170
2017-03-10T11:09:23.446Z,160
2017-03-10T11:10:24.328Z,180
2017-03-10T11:11:24.011Z,210
2017-03-10T11:12:23.512Z,270
2017-03-10T11:13:23.024Z,300
2017-03-10T11:14:22.522Z,295
2017-03-10T11:15:22.917Z,300
2017-03-10T11:16:22.916Z,320
2017-03-10T11:17:22.898Z,355
2017-03-10T11:18:22.864Z,345
2017-03-10T11:19:22.875Z,295
2017-03-10T11:20:23.265Z,295
2017-03-10T11:21:23.460Z,275
2017-03-10T11:22:23.454Z,305
2017-03-10T11:23:22.465Z,305
2017-03-10T11:24:23.361Z,290
2017-03-10T11:25:22.813Z,295
2017-03-10T11:26:22.783Z,255
2017-03-10T11:27:22.802Z,220
2017-03-10T11:28:23.169Z,210
2017-03-10T11:29:22.727Z,205
2017-03-10T11:30:22.711Z,200
2017-03-10T11:31:22.744Z,205
2017-03-10T11:32:22.702Z,220
2017-03-10T11:33:22.320Z,250
2017-03-10T11:34:22.261Z,275
2017-03-10T11:35:22.255Z,305
2017-03-10T11:36:22.245Z,330
2017-03-10T11:37:22.646Z,325
2017-03-10T11:38:21.849Z,345
2017-03-10T11:39:22.284Z,350
2017-03-10T11:40:22.589Z,330
2017-03-10T11:41:22.609Z,305
2017-03-10T11:42:22.579Z,305
2017-03-10T11:43:22.160Z,305
2017-03-10T11:44:22.578Z,315
2017-03-10T11:45:22.140Z,310
2017-03-10T11:46:22.521Z,295
2017-03-10T11:47:22.528Z,255
2017-03-10T11:48:22.507Z,220
2017-03-10T11:49:22.499Z,205
2017-03-10T11:50:22.473Z,215
2017-03-10T11:51:22.460Z,255
2017-03-10T11:52:22.440Z,300
2017-03-10T11:53:22.444Z,320
2017-03-10T11:54:22.468Z,325
2017-03-10T11:55:22.410Z,315
2017-03-10T11:56:22.400Z,290
2017-03-10T11:57:22.384Z,280
2017-03-10T11:58:21.973Z,335
2017-03-10T11:59:22.349Z,395
2017-03-10T12:00:22.342Z,310
2017-03-10T12:01:22.332Z,275
2017-03-10T12:02:22.322Z,265
2017-03-10T12:03:22.304Z,270
2017-03-10T12:04:22.316Z,205
2017-03-10T12:05:22.280Z,170
2017-03-10T12:06:22.283Z,175
2017-03-10T12:07:22.264Z,245
2017-03-10T12:08:22.314Z,305
2017-03-10T12:09:22.234Z,295
2017-03-10T12:10:22.228Z,270
2017-03-10T12:11:21.814Z,250
2017-03-10T12:12:22.210Z,230
2017-03-10T12:13:22.196Z,240
2017-03-10T12:14:22.183Z,285
2017-03-10T12:15:22.165Z,300
2017-03-10T12:16:22.184Z,270
2017-03-10T12:17:22.158Z,230
2017-03-10T12:18:22.134Z,200
2017-03-10T12:19:21.720Z,185
2017-03-10T12:20:22.105Z,185
2017-03-10T12:21:21.751Z,220
2017-03-10T12:22:22.101Z,310
2017-03-10T12:23:22.077Z,395
2017-03-10T12:24:22.107Z,335
2017-03-10T12:25:22.099Z,310
2017-03-10T12:26:21.674Z,260
2017-03-10T12:27:22.029Z,210
2017-03-10T12:28:22.016Z,225
2017-03-10T12:29:22.045Z,265
2017-03-10T12:30:21.601Z,335
2017-03-10T12:31:21.990Z,345
2017-03-10T12:32:21.984Z,315
2017-03-10T12:33:21.957Z,280
2017-03-10T12:34:21.946Z,260
2017-03-10T12:35:21.539Z,235
2017-03-10T12:36:21.533Z,200
2017-03-10T12:37:21.912Z,170
2017-03-10T12:38:21.893Z,160
2017-03-10T12:39:21.926Z,155
2017-03-10T12:40:21.478Z,155
2017-03-10T12:41:21.076Z,150
2017-03-10T12:42:21.846Z,165
2017-03-10T12:43:21.446Z,170
2017-03-10T12:44:21.848Z,155
2017-03-10T12:45:21.815Z,170
2017-03-10T12:46:21.839Z,180
2017-03-10T12:47:21.810Z,205
2017-03-10T12:48:21.779Z,250
2017-03-10T12:49:21.782Z,245
2017-03-10T12:50:21.754Z,245
2017-03-10T12:51:21.760Z,275
2017-03-10T12:52:21.736Z,300
2017-03-10T12:53:21.756Z,315
2017-03-10T12:54:21.725Z,265
2017-03-10T12:55:21.331Z,245
2017-03-10T12:56:22.379Z,240
2017-03-10T12:57:21.945Z,235
2017-03-10T12:58:21.579Z,210
2017-03-10T12:59:21.787Z,205
2017-03-10T13:00:21.843Z,225
2017-03-10T13:01:21.329Z,250
2017-03-10T13:02:21.932Z,275
2017-03-10T13:03:21.686Z,330
2017-03-10T13:04:21.507Z,305
2017-03-10T13:05:20.949Z,300
2017-03-10T13:06:21.341Z,330
2017-03-10T13:07:21.251Z,305
2017-03-10T13:08:21.785Z,240
2017-03-10T13:09:21.916Z,185
2017-03-10T13:10:21.381Z,175
2017-03-10T13:11:21.533Z,175
2017-03-10T13:12:21.525Z,175
2017-03-10T13:13:21.608Z,165
2017-03-10T13:14:21.518Z,180
2017-03-10T13:15:21.701Z,240
2017-03-10T13:16:21.708Z,275
2017-03-10T13:17:21.043Z,260
2017-03-10T13:18:21.755Z,250
2017-03-10T13:19:21.708Z,250
2017-03-10T13:20:21.806Z,260
2017-03-10T13:21:21.485Z,260
2017-03-10T13:22:21.757Z,220
2017-03-10T13:23:21.279Z,175
2017-03-10T13:24:21.487Z,155
2017-03-10T13:25:21.708Z,135
2017-03-10T13:26:21.667Z,150
2017-03-10T13:27:21.352Z,175
2017-03-10T13:28:21.506Z,185
2017-03-10T13:29:21.506Z,165
2017-03-10T13:30:21.655Z,130
2017-03-10T13:31:21.519Z,120
2017-03-10T13:32:21.440Z,115
2017-03-10T13:33:21.475Z,125
2017-03-10T13:34:21.609Z,135
2017-03-10T13:35:21.599Z,140
2017-03-10T13:36:21.341Z,130
2017-03-10T13:37:21.396Z,125
2017-03-10T13:38:21.417Z,130
2017-03-10T13:39:21.533Z,145
2017-03-10T13:40:21.503Z,165
2017-03-10T13:41:21.441Z,195
2017-03-10T13:42:20.960Z,220
2017-03-10T13:43:21.463Z,250
2017-03-10T13:44:21.582Z,325
2017-03-10T13:45:21.169Z,345
2017-03-10T13:46:21.455Z,305
2017-03-10T13:47:21.326Z,285
2017-03-10T13:48:21.419Z,260
2017-03-10T13:49:21.357Z,225
2017-03-10T13:50:21.505Z,205
2017-03-10T13:51:21.336Z,200
2017-03-10T13:52:20.658Z,205
2017-03-10T13:53:21.154Z,215
2017-03-10T13:54:21.139Z,205
2017-03-10T13:55:20.425Z,200
2017-03-10T13:56:21.027Z,185
2017-03-10T13:57:21.002Z,180
2017-03-10T13:58:20.846Z,170
2017-03-10T13:59:21.309Z,170
2017-03-10T14:00:21.314Z,175
2017-03-10T14:01:21.366Z,170
2017-03-10T14:02:20.346Z,170
2017-03-10T14:03:21.279Z,185
2017-03-10T14:04:21.236Z,195
2017-03-10T14:05:21.178Z,215
2017-03-10T14:06:20.918Z,225
2017-03-10T14:07:20.953Z,155
2017-03-10T14:08:20.897Z,105
2017-03-10T14:09:21.068Z,95
2017-03-10T14:10:21.287Z,95
2017-03-10T14:11:21.208Z,95
2017-03-10T14:12:20.838Z,100
2017-03-10T14:13:20.254Z,110
2017-03-10T14:14:20.422Z,115
2017-03-10T14:15:21.159Z,100